sensor_id;sensor_type;location;lat;lon;timestamp;temperature;humidity
22212;DHT22;11275;52.488;13.462;2023-07-20T00:01:22;20.00;99.90
22212;DHT22;11275;52.488;13.462;2023-07-20T00:03:48;20.00;99.90
22212;DHT22;11275;52.488;13.462;2023-07-20T00:06:25;20.00;99.90
22212;DHT22;11275;52.488;13.462;2023-07-20T00:08:57;20.00;99.90
22212;DHT22;11275;52.488;13.462;2023-07-20T00:11:26;20.00;99.90
22212;DHT22;11275;52.488;13.462;2023-07-20T00:13:52;20.00;99.90
22212;DHT22;11275;52.488;13.462;2023-07-20T00:16:17;20.00;99.90
22212;DHT22;11275;52.488;13.462;2023-07-20T00:18:43;20.00;99.90
22212;DHT22;11275;52.488;13.462;2023-07-20T00:21:09;19.90;99.90
22212;DHT22;11275;52.488;13.462;2023-07-20T00:23:35;19.80;99.90
22212;DHT22;11275;52.488;13.462;2023-07-20T00:26:00;19.80;99.90
22212;DHT22;11275;52.488;13.462;2023-07-20T00:28:26;19.80;99.90
22212;DHT22;11275;52.488;13.462;2023-07-20T00:30:51;19.80;99.90
22212;DHT22;11275;52.488;13.462;2023-07-20T00:33:18;19.80;99.90
22212;DHT22;11275;52.488;13.462;2023-07-20T00:35:44;19.80;99.90
22212;DHT22;11275;52.488;13.462;2023-07-20T00:38:10;19.80;99.90
22212;DHT22;11275;52.488;13.462;2023-07-20T00:40:37;19.80;99.90
22212;DHT22;11275;52.488;13.462;2023-07-20T00:43:02;19.70;99.90
22212;DHT22;11275;52.488;13.462;2023-07-20T00:45:29;19.70;99.90
22212;DHT22;11275;52.488;13.462;2023-07-20T00:47:55;19.60;99.90
22212;DHT22;11275;52.488;13.462;2023-07-20T00:50:21;19.60;99.90
22212;DHT22;11275;52.488;13.462;2023-07-20T00:52:48;19.50;99.90
22212;DHT22;11275;52.488;13.462;2023-07-20T00:55:14;19.50;99.90
22212;DHT22;11275;52.488;13.462;2023-07-20T00:57:39;19.50;99.90
22212;DHT22;11275;52.488;13.462;2023-07-20T01:00:06;19.40;99.90
22212;DHT22;11275;52.488;13.462;2023-07-20T01:02:32;19.40;99.90
22212;DHT22;11275;52.488;13.462;2023-07-20T01:04:57;19.40;99.90
22212;DHT22;11275;52.488;13.462;2023-07-20T01:07:30;19.40;99.90
22212;DHT22;11275;52.488;13.462;2023-07-20T01:13:14;19.30;99.90
22212;DHT22;11275;52.488;13.462;2023-07-20T01:15:40;19.20;99.90
22212;DHT22;11275;52.488;13.462;2023-07-20T01:18:08;19.30;99.90
22212;DHT22;11275;52.488;13.462;2023-07-20T01:20:34;19.20;99.90
22212;DHT22;11275;52.488;13.462;2023-07-20T01:23:28;19.20;99.90
22212;DHT22;11275;52.488;13.462;2023-07-20T01:29:24;19.20;99.90
22212;DHT22;11275;52.488;13.462;2023-07-20T01:31:54;19.20;99.90
22212;DHT22;11275;52.488;13.462;2023-07-20T01:34:22;19.20;99.90
22212;DHT22;11275;52.488;13.462;2023-07-20T01:36:50;19.20;99.90
22212;DHT22;11275;52.488;13.462;2023-07-20T01:39:19;19.30;99.90
22212;DHT22;11275;52.488;13.462;2023-07-20T01:41:45;19.30;99.90
22212;DHT22;11275;52.488;13.462;2023-07-20T01:44:12;19.20;99.90
22212;DHT22;11275;52.488;13.462;2023-07-20T01:46:38;19.20;99.90
22212;DHT22;11275;52.488;13.462;2023-07-20T01:49:04;19.30;99.90
22212;DHT22;11275;52.488;13.462;2023-07-20T01:51:29;19.20;99.90
22212;DHT22;11275;52.488;13.462;2023-07-20T01:53:55;19.20;99.90
22212;DHT22;11275;52.488;13.462;2023-07-20T01:56:22;19.20;99.90
22212;DHT22;11275;52.488;13.462;2023-07-20T01:58:48;19.30;99.90
22212;DHT22;11275;52.488;13.462;2023-07-20T02:01:13;19.30;99.90
22212;DHT22;11275;52.488;13.462;2023-07-20T02:03:39;19.30;99.90
22212;DHT22;11275;52.488;13.462;2023-07-20T02:06:04;19.30;99.90
22212;DHT22;11275;52.488;13.462;2023-07-20T02:08:30;19.30;99.90
22212;DHT22;11275;52.488;13.462;2023-07-20T02:10:56;19.20;99.90
22212;DHT22;11275;52.488;13.462;2023-07-20T02:13:22;19.20;99.90
22212;DHT22;11275;52.488;13.462;2023-07-20T02:15:48;19.20;99.90
22212;DHT22;11275;52.488;13.462;2023-07-20T02:18:15;19.10;99.90
22212;DHT22;11275;52.488;13.462;2023-07-20T02:20:41;19.20;99.90
22212;DHT22;11275;52.488;13.462;2023-07-20T02:23:07;19.10;99.90
22212;DHT22;11275;52.488;13.462;2023-07-20T02:25:34;19.00;99.90
22212;DHT22;11275;52.488;13.462;2023-07-20T02:28:00;18.90;99.90
22212;DHT22;11275;52.488;13.462;2023-07-20T02:30:25;18.90;99.90
22212;DHT22;11275;52.488;13.462;2023-07-20T02:32:52;18.90;99.90
22212;DHT22;11275;52.488;13.462;2023-07-20T02:35:18;19.00;99.90
22212;DHT22;11275;52.488;13.462;2023-07-20T02:37:43;19.00;99.90
22212;DHT22;11275;52.488;13.462;2023-07-20T02:40:09;19.00;99.90
22212;DHT22;11275;52.488;13.462;2023-07-20T02:42:35;19.00;99.90
22212;DHT22;11275;52.488;13.462;2023-07-20T02:45:02;19.00;99.90
22212;DHT22;11275;52.488;13.462;2023-07-20T02:47:29;19.10;99.90
22212;DHT22;11275;52.488;13.462;2023-07-20T02:49:55;19.10;99.90
22212;DHT22;11275;52.488;13.462;2023-07-20T02:52:20;19.10;99.90
22212;DHT22;11275;52.488;13.462;2023-07-20T02:54:46;19.10;99.90
22212;DHT22;11275;52.488;13.462;2023-07-20T02:57:12;19.10;99.90
22212;DHT22;11275;52.488;13.462;2023-07-20T02:59:38;19.10;99.90
22212;DHT22;11275;52.488;13.462;2023-07-20T03:02:03;19.10;99.90
22212;DHT22;11275;52.488;13.462;2023-07-20T03:04:29;19.00;99.90
22212;DHT22;11275;52.488;13.462;2023-07-20T03:06:55;19.10;99.90
22212;DHT22;11275;52.488;13.462;2023-07-20T03:09:20;19.00;99.90
22212;DHT22;11275;52.488;13.462;2023-07-20T03:11:47;18.90;99.90
22212;DHT22;11275;52.488;13.462;2023-07-20T03:14:13;18.90;99.90
22212;DHT22;11275;52.488;13.462;2023-07-20T03:16:38;18.90;99.90
22212;DHT22;11275;52.488;13.462;2023-07-20T03:19:04;18.90;99.90
22212;DHT22;11275;52.488;13.462;2023-07-20T03:21:30;19.00;99.90
22212;DHT22;11275;52.488;13.462;2023-07-20T03:23:55;19.00;99.90
22212;DHT22;11275;52.488;13.462;2023-07-20T03:26:21;19.00;99.90
22212;DHT22;11275;52.488;13.462;2023-07-20T03:28:48;18.90;99.90
22212;DHT22;11275;52.488;13.462;2023-07-20T03:31:14;18.90;99.90
22212;DHT22;11275;52.488;13.462;2023-07-20T03:33:40;18.90;99.90
22212;DHT22;11275;52.488;13.462;2023-07-20T03:36:06;19.00;99.90
22212;DHT22;11275;52.488;13.462;2023-07-20T03:38:31;19.00;99.90
22212;DHT22;11275;52.488;13.462;2023-07-20T03:41:00;18.90;99.90
22212;DHT22;11275;52.488;13.462;2023-07-20T03:43:28;18.90;99.90
22212;DHT22;11275;52.488;13.462;2023-07-20T03:45:55;18.90;99.90
22212;DHT22;11275;52.488;13.462;2023-07-20T03:48:23;18.90;99.90
22212;DHT22;11275;52.488;13.462;2023-07-20T03:50:50;18.90;99.90
22212;DHT22;11275;52.488;13.462;2023-07-20T03:53:16;19.00;99.90
22212;DHT22;11275;52.488;13.462;2023-07-20T03:55:46;19.00;99.90
22212;DHT22;11275;52.488;13.462;2023-07-20T03:58:12;18.90;99.90
22212;DHT22;11275;52.488;13.462;2023-07-20T04:00:38;18.90;99.90
22212;DHT22;11275;52.488;13.462;2023-07-20T04:03:04;18.90;99.90
22212;DHT22;11275;52.488;13.462;2023-07-20T04:05:30;18.90;99.90
22212;DHT22;11275;52.488;13.462;2023-07-20T04:07:55;18.90;99.90
22212;DHT22;11275;52.488;13.462;2023-07-20T04:10:21;19.00;99.90
22212;DHT22;11275;52.488;13.462;2023-07-20T04:12:47;19.00;99.90
22212;DHT22;11275;52.488;13.462;2023-07-20T04:15:13;19.00;99.90
22212;DHT22;11275;52.488;13.462;2023-07-20T04:17:40;19.00;99.90
22212;DHT22;11275;52.488;13.462;2023-07-20T04:20:07;19.00;99.90
22212;DHT22;11275;52.488;13.462;2023-07-20T04:22:33;19.00;99.90
22212;DHT22;11275;52.488;13.462;2023-07-20T04:24:58;19.00;99.90
22212;DHT22;11275;52.488;13.462;2023-07-20T04:27:25;19.00;99.90
22212;DHT22;11275;52.488;13.462;2023-07-20T04:29:52;19.00;99.90
22212;DHT22;11275;52.488;13.462;2023-07-20T04:32:17;18.90;99.90
22212;DHT22;11275;52.488;13.462;2023-07-20T04:34:43;18.90;99.90
22212;DHT22;11275;52.488;13.462;2023-07-20T04:37:09;18.90;99.90
22212;DHT22;11275;52.488;13.462;2023-07-20T04:39:34;18.90;99.90
22212;DHT22;11275;52.488;13.462;2023-07-20T04:42:00;18.80;99.90
22212;DHT22;11275;52.488;13.462;2023-07-20T04:44:25;18.80;99.90
22212;DHT22;11275;52.488;13.462;2023-07-20T04:46:51;18.80;99.90
22212;DHT22;11275;52.488;13.462;2023-07-20T04:49:17;18.80;99.90
22212;DHT22;11275;52.488;13.462;2023-07-20T04:51:42;18.80;99.90
22212;DHT22;11275;52.488;13.462;2023-07-20T04:54:08;18.90;99.90
22212;DHT22;11275;52.488;13.462;2023-07-20T04:56:34;18.90;99.90
22212;DHT22;11275;52.488;13.462;2023-07-20T04:58:59;18.90;99.90
22212;DHT22;11275;52.488;13.462;2023-07-20T05:01:25;18.90;99.90
22212;DHT22;11275;52.488;13.462;2023-07-20T05:03:52;18.90;99.90
22212;DHT22;11275;52.488;13.462;2023-07-20T05:06:18;18.90;99.90
22212;DHT22;11275;52.488;13.462;2023-07-20T05:08:44;18.90;99.90
22212;DHT22;11275;52.488;13.462;2023-07-20T05:11:10;19.00;99.90
22212;DHT22;11275;52.488;13.462;2023-07-20T05:13:37;19.10;99.90
22212;DHT22;11275;52.488;13.462;2023-07-20T05:16:03;19.30;99.90
22212;DHT22;11275;52.488;13.462;2023-07-20T05:18:29;19.30;99.90
22212;DHT22;11275;52.488;13.462;2023-07-20T05:20:54;19.30;99.90
22212;DHT22;11275;52.488;13.462;2023-07-20T05:23:21;19.30;99.90
22212;DHT22;11275;52.488;13.462;2023-07-20T05:25:47;19.20;99.90
22212;DHT22;11275;52.488;13.462;2023-07-20T05:28:13;19.10;99.90
22212;DHT22;11275;52.488;13.462;2023-07-20T05:30:40;19.00;99.90
22212;DHT22;11275;52.488;13.462;2023-07-20T05:33:05;19.00;99.90
22212;DHT22;11275;52.488;13.462;2023-07-20T05:35:31;19.00;99.90
22212;DHT22;11275;52.488;13.462;2023-07-20T05:38:00;19.10;99.90
22212;DHT22;11275;52.488;13.462;2023-07-20T05:40:26;19.10;99.90
22212;DHT22;11275;52.488;13.462;2023-07-20T05:42:51;19.00;99.90
22212;DHT22;11275;52.488;13.462;2023-07-20T05:45:19;19.00;99.90
22212;DHT22;11275;52.488;13.462;2023-07-20T05:47:46;19.00;99.90
22212;DHT22;11275;52.488;13.462;2023-07-20T05:50:12;19.00;99.90
22212;DHT22;11275;52.488;13.462;2023-07-20T05:52:37;19.10;99.90
22212;DHT22;11275;52.488;13.462;2023-07-20T05:55:05;19.10;99.90
22212;DHT22;11275;52.488;13.462;2023-07-20T05:57:30;19.10;99.90
22212;DHT22;11275;52.488;13.462;2023-07-20T05:59:56;19.10;99.90
22212;DHT22;11275;52.488;13.462;2023-07-20T06:02:21;19.30;99.90
22212;DHT22;11275;52.488;13.462;2023-07-20T06:04:47;19.60;99.90
22212;DHT22;11275;52.488;13.462;2023-07-20T06:07:13;19.80;99.90
22212;DHT22;11275;52.488;13.462;2023-07-20T06:09:39;19.80;99.90
22212;DHT22;11275;52.488;13.462;2023-07-20T06:12:05;19.70;99.90
22212;DHT22;11275;52.488;13.462;2023-07-20T06:14:31;19.70;99.90
22212;DHT22;11275;52.488;13.462;2023-07-20T06:16:56;19.70;99.90
22212;DHT22;11275;52.488;13.462;2023-07-20T06:19:22;19.70;99.90
22212;DHT22;11275;52.488;13.462;2023-07-20T06:21:48;19.60;99.90
22212;DHT22;11275;52.488;13.462;2023-07-20T06:24:15;19.50;99.90
22212;DHT22;11275;52.488;13.462;2023-07-20T06:26:41;19.60;99.90
22212;DHT22;11275;52.488;13.462;2023-07-20T06:29:07;19.60;99.90
22212;DHT22;11275;52.488;13.462;2023-07-20T06:31:33;19.60;99.90
22212;DHT22;11275;52.488;13.462;2023-07-20T06:33:59;19.60;99.90
22212;DHT22;11275;52.488;13.462;2023-07-20T06:36:25;19.40;99.90
22212;DHT22;11275;52.488;13.462;2023-07-20T06:38:54;19.40;99.90
22212;DHT22;11275;52.488;13.462;2023-07-20T06:41:20;19.40;99.90
22212;DHT22;11275;52.488;13.462;2023-07-20T06:43:54;19.40;99.90
22212;DHT22;11275;52.488;13.462;2023-07-20T06:46:27;19.40;99.90
22212;DHT22;11275;52.488;13.462;2023-07-20T06:48:53;19.50;99.90
22212;DHT22;11275;52.488;13.462;2023-07-20T06:51:19;19.50;99.90
22212;DHT22;11275;52.488;13.462;2023-07-20T06:53:45;19.50;99.90
22212;DHT22;11275;52.488;13.462;2023-07-20T06:56:11;19.60;99.90
22212;DHT22;11275;52.488;13.462;2023-07-20T06:58:37;19.80;99.90
22212;DHT22;11275;52.488;13.462;2023-07-20T07:01:07;19.80;99.90
22212;DHT22;11275;52.488;13.462;2023-07-20T07:03:33;19.80;99.90
22212;DHT22;11275;52.488;13.462;2023-07-20T07:05:59;19.80;99.90
22212;DHT22;11275;52.488;13.462;2023-07-20T07:08:25;19.80;99.90
22212;DHT22;11275;52.488;13.462;2023-07-20T07:10:50;19.80;99.90
22212;DHT22;11275;52.488;13.462;2023-07-20T07:13:16;19.80;99.90
22212;DHT22;11275;52.488;13.462;2023-07-20T07:15:42;19.70;99.90
22212;DHT22;11275;52.488;13.462;2023-07-20T07:18:08;19.70;99.90
22212;DHT22;11275;52.488;13.462;2023-07-20T07:20:34;19.50;99.90
22212;DHT22;11275;52.488;13.462;2023-07-20T07:22:59;19.60;99.90
22212;DHT22;11275;52.488;13.462;2023-07-20T07:25:26;19.70;99.90
22212;DHT22;11275;52.488;13.462;2023-07-20T07:27:53;19.70;99.90
22212;DHT22;11275;52.488;13.462;2023-07-20T07:30:18;19.70;99.90
22212;DHT22;11275;52.488;13.462;2023-07-20T07:32:44;19.70;99.90
22212;DHT22;11275;52.488;13.462;2023-07-20T07:35:10;19.70;99.90
22212;DHT22;11275;52.488;13.462;2023-07-20T07:37:35;19.90;99.90
22212;DHT22;11275;52.488;13.462;2023-07-20T07:40:02;20.10;99.90
22212;DHT22;11275;52.488;13.462;2023-07-20T07:42:29;20.30;99.90
22212;DHT22;11275;52.488;13.462;2023-07-20T07:44:54;20.40;99.90
22212;DHT22;11275;52.488;13.462;2023-07-20T07:47:20;20.40;99.90
22212;DHT22;11275;52.488;13.462;2023-07-20T07:49:46;20.40;99.90
22212;DHT22;11275;52.488;13.462;2023-07-20T07:52:11;20.40;99.90
22212;DHT22;11275;52.488;13.462;2023-07-20T07:54:37;20.40;99.90
22212;DHT22;11275;52.488;13.462;2023-07-20T07:57:03;20.40;99.90
22212;DHT22;11275;52.488;13.462;2023-07-20T07:59:28;20.40;99.90
22212;DHT22;11275;52.488;13.462;2023-07-20T08:01:55;20.50;99.90
22212;DHT22;11275;52.488;13.462;2023-07-20T08:04:21;20.60;99.90
22212;DHT22;11275;52.488;13.462;2023-07-20T08:06:46;20.40;99.90
22212;DHT22;11275;52.488;13.462;2023-07-20T08:09:12;20.30;99.90
22212;DHT22;11275;52.488;13.462;2023-07-20T08:11:39;20.20;99.90
22212;DHT22;11275;52.488;13.462;2023-07-20T08:14:05;20.40;99.90
22212;DHT22;11275;52.488;13.462;2023-07-20T08:16:30;20.70;99.90
22212;DHT22;11275;52.488;13.462;2023-07-20T08:18:56;20.80;99.90
22212;DHT22;11275;52.488;13.462;2023-07-20T08:21:21;21.00;99.90
22212;DHT22;11275;52.488;13.462;2023-07-20T08:23:47;21.20;99.60
22212;DHT22;11275;52.488;13.462;2023-07-20T08:26:13;21.30;99.40
22212;DHT22;11275;52.488;13.462;2023-07-20T08:28:38;21.40;99.10
22212;DHT22;11275;52.488;13.462;2023-07-20T08:31:05;21.40;98.70
22212;DHT22;11275;52.488;13.462;2023-07-20T08:33:32;21.10;98.60
22212;DHT22;11275;52.488;13.462;2023-07-20T08:36:00;21.10;99.10
22212;DHT22;11275;52.488;13.462;2023-07-20T08:38:26;21.20;98.90
22212;DHT22;11275;52.488;13.462;2023-07-20T08:40:53;21.20;99.00
22212;DHT22;11275;52.488;13.462;2023-07-20T08:43:22;21.30;98.90
22212;DHT22;11275;52.488;13.462;2023-07-20T08:45:50;21.40;98.70
22212;DHT22;11275;52.488;13.462;2023-07-20T08:48:18;21.40;98.60
22212;DHT22;11275;52.488;13.462;2023-07-20T08:50:45;21.40;98.80
22212;DHT22;11275;52.488;13.462;2023-07-20T08:53:12;21.50;98.80
22212;DHT22;11275;52.488;13.462;2023-07-20T08:55:39;21.50;98.60
22212;DHT22;11275;52.488;13.462;2023-07-20T08:58:08;21.50;98.70
22212;DHT22;11275;52.488;13.462;2023-07-20T09:00:37;21.50;98.20
22212;DHT22;11275;52.488;13.462;2023-07-20T09:03:02;21.40;98.30
22212;DHT22;11275;52.488;13.462;2023-07-20T09:05:29;21.30;98.50
22212;DHT22;11275;52.488;13.462;2023-07-20T09:07:55;21.10;98.40
22212;DHT22;11275;52.488;13.462;2023-07-20T09:10:21;21.00;98.40
22212;DHT22;11275;52.488;13.462;2023-07-20T09:12:47;20.80;98.70
22212;DHT22;11275;52.488;13.462;2023-07-20T09:15:13;20.80;98.80
22212;DHT22;11275;52.488;13.462;2023-07-20T09:17:39;20.90;98.60
22212;DHT22;11275;52.488;13.462;2023-07-20T09:20:06;21.20;99.10
22212;DHT22;11275;52.488;13.462;2023-07-20T09:22:36;21.50;97.90
22212;DHT22;11275;52.488;13.462;2023-07-20T09:25:15;21.70;96.90
22212;DHT22;11275;52.488;13.462;2023-07-20T09:27:43;21.90;96.80
22212;DHT22;11275;52.488;13.462;2023-07-20T09:30:10;22.00;96.40
22212;DHT22;11275;52.488;13.462;2023-07-20T09:32:44;22.10;96.50
22212;DHT22;11275;52.488;13.462;2023-07-20T09:35:17;22.20;95.40
22212;DHT22;11275;52.488;13.462;2023-07-20T09:40:17;22.40;95.50
22212;DHT22;11275;52.488;13.462;2023-07-20T09:42:43;22.40;95.10
22212;DHT22;11275;52.488;13.462;2023-07-20T09:45:09;22.40;95.00
22212;DHT22;11275;52.488;13.462;2023-07-20T09:47:36;22.30;94.70
22212;DHT22;11275;52.488;13.462;2023-07-20T09:50:03;22.30;94.40
22212;DHT22;11275;52.488;13.462;2023-07-20T09:52:29;22.20;94.90
22212;DHT22;11275;52.488;13.462;2023-07-20T09:54:55;22.10;95.20
22212;DHT22;11275;52.488;13.462;2023-07-20T09:57:21;21.90;95.50
22212;DHT22;11275;52.488;13.462;2023-07-20T09:59:47;21.80;95.60
22212;DHT22;11275;52.488;13.462;2023-07-20T10:02:27;21.70;95.60
22212;DHT22;11275;52.488;13.462;2023-07-20T10:04:55;21.60;95.50
22212;DHT22;11275;52.488;13.462;2023-07-20T10:07:22;21.40;96.00
22212;DHT22;11275;52.488;13.462;2023-07-20T10:09:52;21.30;96.20
22212;DHT22;11275;52.488;13.462;2023-07-20T10:12:19;21.20;96.30
22212;DHT22;11275;52.488;13.462;2023-07-20T10:14:54;21.20;96.40
22212;DHT22;11275;52.488;13.462;2023-07-20T10:17:22;21.20;96.70
22212;DHT22;11275;52.488;13.462;2023-07-20T10:19:52;21.40;96.30
22212;DHT22;11275;52.488;13.462;2023-07-20T10:22:26;21.60;96.30
22212;DHT22;11275;52.488;13.462;2023-07-20T10:24:53;21.80;96.30
22212;DHT22;11275;52.488;13.462;2023-07-20T10:27:20;22.00;96.30
22212;DHT22;11275;52.488;13.462;2023-07-20T10:29:56;22.20;96.20
22212;DHT22;11275;52.488;13.462;2023-07-20T10:32:27;22.30;96.20
22212;DHT22;11275;52.488;13.462;2023-07-20T10:34:56;22.30;96.00
22212;DHT22;11275;52.488;13.462;2023-07-20T10:37:48;22.40;96.00
22212;DHT22;11275;52.488;13.462;2023-07-20T10:40:33;22.30;95.80
22212;DHT22;11275;52.488;13.462;2023-07-20T10:43:10;22.20;96.00
22212;DHT22;11275;52.488;13.462;2023-07-20T10:48:05;22.10;95.80
22212;DHT22;11275;52.488;13.462;2023-07-20T10:50:33;22.10;95.10
22212;DHT22;11275;52.488;13.462;2023-07-20T10:53:25;21.90;94.80
22212;DHT22;11275;52.488;13.462;2023-07-20T10:56:06;21.90;95.10
22212;DHT22;11275;52.488;13.462;2023-07-20T10:58:33;21.90;95.40
22212;DHT22;11275;52.488;13.462;2023-07-20T11:01:03;22.00;95.60
22212;DHT22;11275;52.488;13.462;2023-07-20T11:03:37;22.10;95.90
22212;DHT22;11275;52.488;13.462;2023-07-20T11:08:56;21.90;95.80
22212;DHT22;11275;52.488;13.462;2023-07-20T11:11:23;21.90;95.80
22212;DHT22;11275;52.488;13.462;2023-07-20T11:13:59;21.90;95.80
22212;DHT22;11275;52.488;13.462;2023-07-20T11:19:02;21.90;95.90
22212;DHT22;11275;52.488;13.462;2023-07-20T11:21:29;21.80;95.60
22212;DHT22;11275;52.488;13.462;2023-07-20T11:23:55;21.80;95.50
22212;DHT22;11275;52.488;13.462;2023-07-20T11:26:21;21.90;95.60
22212;DHT22;11275;52.488;13.462;2023-07-20T11:28:50;22.00;95.40
22212;DHT22;11275;52.488;13.462;2023-07-20T11:31:18;22.10;95.20
22212;DHT22;11275;52.488;13.462;2023-07-20T11:33:44;22.10;95.20
22212;DHT22;11275;52.488;13.462;2023-07-20T11:36:10;22.10;95.20
22212;DHT22;11275;52.488;13.462;2023-07-20T11:38:35;22.00;95.20
22212;DHT22;11275;52.488;13.462;2023-07-20T11:41:03;22.00;95.40
22212;DHT22;11275;52.488;13.462;2023-07-20T11:43:30;22.10;95.60
22212;DHT22;11275;52.488;13.462;2023-07-20T11:45:56;22.20;95.40
22212;DHT22;11275;52.488;13.462;2023-07-20T11:48:21;22.20;95.10
22212;DHT22;11275;52.488;13.462;2023-07-20T11:50:48;22.10;95.30
22212;DHT22;11275;52.488;13.462;2023-07-20T11:53:14;22.10;95.50
22212;DHT22;11275;52.488;13.462;2023-07-20T11:55:41;22.10;95.60
22212;DHT22;11275;52.488;13.462;2023-07-20T11:58:08;22.10;95.10
22212;DHT22;11275;52.488;13.462;2023-07-20T12:00:35;22.00;95.10
22212;DHT22;11275;52.488;13.462;2023-07-20T12:03:01;22.10;95.10
22212;DHT22;11275;52.488;13.462;2023-07-20T12:05:27;22.30;95.00
22212;DHT22;11275;52.488;13.462;2023-07-20T12:07:54;22.40;94.30
22212;DHT22;11275;52.488;13.462;2023-07-20T12:10:25;22.40;94.50
22212;DHT22;11275;52.488;13.462;2023-07-20T12:12:51;22.40;94.50
22212;DHT22;11275;52.488;13.462;2023-07-20T12:15:25;22.30;94.30
22212;DHT22;11275;52.488;13.462;2023-07-20T12:18:02;22.30;94.10
22212;DHT22;11275;52.488;13.462;2023-07-20T12:20:33;22.10;94.30
22212;DHT22;11275;52.488;13.462;2023-07-20T12:23:04;22.00;94.30
22212;DHT22;11275;52.488;13.462;2023-07-20T12:25:36;21.80;95.00
22212;DHT22;11275;52.488;13.462;2023-07-20T12:28:07;21.70;95.60
22212;DHT22;11275;52.488;13.462;2023-07-20T12:30:33;21.80;95.80
22212;DHT22;11275;52.488;13.462;2023-07-20T12:32:59;21.90;95.60
22212;DHT22;11275;52.488;13.462;2023-07-20T12:35:25;22.00;95.20
22212;DHT22;11275;52.488;13.462;2023-07-20T12:37:50;22.20;94.80
22212;DHT22;11275;52.488;13.462;2023-07-20T12:40:17;22.30;93.90
22212;DHT22;11275;52.488;13.462;2023-07-20T12:42:43;22.30;93.80
22212;DHT22;11275;52.488;13.462;2023-07-20T12:45:08;22.40;93.30
22212;DHT22;11275;52.488;13.462;2023-07-20T12:47:34;22.50;93.40
22212;DHT22;11275;52.488;13.462;2023-07-20T12:50:00;22.60;93.10
22212;DHT22;11275;52.488;13.462;2023-07-20T12:52:25;22.60;92.50
22212;DHT22;11275;52.488;13.462;2023-07-20T12:54:51;22.60;92.60
22212;DHT22;11275;52.488;13.462;2023-07-20T12:57:17;22.50;92.30
22212;DHT22;11275;52.488;13.462;2023-07-20T12:59:43;22.40;92.30
22212;DHT22;11275;52.488;13.462;2023-07-20T13:02:09;22.30;92.20
22212;DHT22;11275;52.488;13.462;2023-07-20T13:04:34;22.30;92.00
22212;DHT22;11275;52.488;13.462;2023-07-20T13:07:00;22.30;91.90
22212;DHT22;11275;52.488;13.462;2023-07-20T13:09:25;22.20;91.20
22212;DHT22;11275;52.488;13.462;2023-07-20T13:11:51;22.20;91.10
22212;DHT22;11275;52.488;13.462;2023-07-20T13:14:18;22.20;91.10
22212;DHT22;11275;52.488;13.462;2023-07-20T13:16:43;22.20;90.10
22212;DHT22;11275;52.488;13.462;2023-07-20T13:19:09;22.10;88.60
22212;DHT22;11275;52.488;13.462;2023-07-20T13:21:34;22.10;88.30
22212;DHT22;11275;52.488;13.462;2023-07-20T13:24:00;22.20;87.10
22212;DHT22;11275;52.488;13.462;2023-07-20T13:26:26;22.20;86.50
22212;DHT22;11275;52.488;13.462;2023-07-20T13:28:51;22.30;84.70
22212;DHT22;11275;52.488;13.462;2023-07-20T13:31:18;22.30;83.20
22212;DHT22;11275;52.488;13.462;2023-07-20T13:33:43;22.30;83.10
22212;DHT22;11275;52.488;13.462;2023-07-20T13:36:09;22.40;81.90
22212;DHT22;11275;52.488;13.462;2023-07-20T13:38:34;22.40;82.60
22212;DHT22;11275;52.488;13.462;2023-07-20T13:41:00;22.50;82.20
22212;DHT22;11275;52.488;13.462;2023-07-20T13:43:25;22.60;81.30
22212;DHT22;11275;52.488;13.462;2023-07-20T13:45:51;22.70;82.40
22212;DHT22;11275;52.488;13.462;2023-07-20T13:48:17;22.80;80.00
22212;DHT22;11275;52.488;13.462;2023-07-20T13:50:45;22.90;81.10
22212;DHT22;11275;52.488;13.462;2023-07-20T13:53:11;23.00;81.10
22212;DHT22;11275;52.488;13.462;2023-07-20T13:55:37;23.10;80.20
22212;DHT22;11275;52.488;13.462;2023-07-20T13:58:03;23.30;78.00
22212;DHT22;11275;52.488;13.462;2023-07-20T14:00:30;23.20;78.80
22212;DHT22;11275;52.488;13.462;2023-07-20T14:02:58;23.30;79.40
22212;DHT22;11275;52.488;13.462;2023-07-20T14:05:24;23.50;79.20
22212;DHT22;11275;52.488;13.462;2023-07-20T14:07:51;23.50;79.00
22212;DHT22;11275;52.488;13.462;2023-07-20T14:10:16;23.50;79.70
22212;DHT22;11275;52.488;13.462;2023-07-20T14:12:43;23.40;79.40
22212;DHT22;11275;52.488;13.462;2023-07-20T14:15:10;23.30;79.60
22212;DHT22;11275;52.488;13.462;2023-07-20T14:17:35;23.20;79.20
22212;DHT22;11275;52.488;13.462;2023-07-20T14:20:01;23.20;79.70
22212;DHT22;11275;52.488;13.462;2023-07-20T14:22:27;23.30;80.10
22212;DHT22;11275;52.488;13.462;2023-07-20T14:24:52;23.60;79.00
22212;DHT22;11275;52.488;13.462;2023-07-20T14:27:18;23.70;78.50
22212;DHT22;11275;52.488;13.462;2023-07-20T14:29:44;23.90;76.50
22212;DHT22;11275;52.488;13.462;2023-07-20T14:32:10;24.00;74.60
22212;DHT22;11275;52.488;13.462;2023-07-20T14:34:35;23.90;74.40
22212;DHT22;11275;52.488;13.462;2023-07-20T14:37:01;23.80;74.70
22212;DHT22;11275;52.488;13.462;2023-07-20T14:39:27;23.70;74.80
22212;DHT22;11275;52.488;13.462;2023-07-20T14:41:53;23.80;76.30
22212;DHT22;11275;52.488;13.462;2023-07-20T14:44:19;23.90;74.10
22212;DHT22;11275;52.488;13.462;2023-07-20T14:46:46;23.90;74.70
22212;DHT22;11275;52.488;13.462;2023-07-20T14:49:11;23.80;74.20
22212;DHT22;11275;52.488;13.462;2023-07-20T14:51:37;23.70;74.50
22212;DHT22;11275;52.488;13.462;2023-07-20T14:54:09;23.80;73.70
22212;DHT22;11275;52.488;13.462;2023-07-20T14:56:35;23.90;72.90
22212;DHT22;11275;52.488;13.462;2023-07-20T14:59:01;24.10;73.10
22212;DHT22;11275;52.488;13.462;2023-07-20T15:01:26;24.20;72.40
22212;DHT22;11275;52.488;13.462;2023-07-20T15:03:52;24.30;71.70
22212;DHT22;11275;52.488;13.462;2023-07-20T15:06:19;24.50;71.60
22212;DHT22;11275;52.488;13.462;2023-07-20T15:08:45;24.60;70.50
22212;DHT22;11275;52.488;13.462;2023-07-20T15:11:10;24.70;70.10
22212;DHT22;11275;52.488;13.462;2023-07-20T15:13:36;24.50;69.50
22212;DHT22;11275;52.488;13.462;2023-07-20T15:16:01;24.60;71.60
22212;DHT22;11275;52.488;13.462;2023-07-20T15:18:27;24.50;69.70
22212;DHT22;11275;52.488;13.462;2023-07-20T15:20:52;24.50;70.30
22212;DHT22;11275;52.488;13.462;2023-07-20T15:23:19;24.70;69.90
22212;DHT22;11275;52.488;13.462;2023-07-20T15:25:45;24.60;70.00
22212;DHT22;11275;52.488;13.462;2023-07-20T15:28:11;24.50;70.20
22212;DHT22;11275;52.488;13.462;2023-07-20T15:30:37;24.30;70.10